Time;durP1;ratioP1;P1;durP2;ratioP2;P2;SDS_P1;SDS_P2;PMS_P1;PMS_P2;Temp;Humidity;BMP_temperature;BMP_pressure;BME280_temperature;BME280_humidity;BME280_pressure;Samples;Min_cycle;Max_cycle;Signal;HPM_P1;HPM_P2
2021/11/08 00:00:35;;;;;;;7.45;3.12;;;;;;;8.11;84.16;100048.92;2747158;85;21011;-70
2021/11/08 00:04:38;;;;;;;4.15;2.80;;;;;;;8.09;84.13;100052.17;2740349;87;21062;-69
2021/11/08 00:08:41;;;;;;;5.25;2.12;;;;;;;8.05;84.32;100047.57;2740609;87;21049;-70
2021/11/08 00:12:42;;;;;;;9.70;2.85;;;;;;;8.07;84.23;100050.98;2740592;85;21066;-69
2021/11/08 00:16:58;;;;;;;9.85;2.87;;;;;;;8.04;84.16;100056.48;2740178;87;21082;-69
2021/11/08 00:20:51;;;;;;;;;;;;;;;8.02;83.92;100061.05;2741404;86;21267;-69
2021/11/08 00:24:54;;;;;;;3.77;2.47;;;;;;;8.01;83.95;100063.34;2723991;87;20138;-69
2021/11/08 00:28:56;;;;;;;4.65;2.25;;;;;;;7.94;84.53;100056.33;2799810;85;21059;-69
2021/11/08 00:32:58;;;;;;;2.92;2.45;;;;;;;7.89;84.60;100059.80;2799499;85;20972;-70
2021/11/08 00:37:00;;;;;;;3.35;2.75;;;;;;;7.92;84.84;100057.42;2799947;85;21050;-69
2021/11/08 00:41:02;;;;;;;5.45;2.25;;;;;;;7.95;85.47;100064.63;2800181;84;21019;-70
2021/11/08 00:45:05;;;;;;;3.80;2.25;;;;;;;8.04;85.63;100076.84;2800747;84;21054;-69
2021/11/08 00:49:09;;;;;;;6.28;2.02;;;;;;;8.11;85.82;100078.92;2800652;85;21038;-69
2021/11/08 00:53:11;;;;;;;4.33;2.45;;;;;;;8.18;86.08;100084.61;2800520;84;21074;-69
2021/11/08 00:57:13;;;;;;;10.32;2.90;;;;;;;8.31;85.76;100087.17;2801027;84;20972;-71
2021/11/08 01:01:21;;;;;;;5.47;2.40;;;;;;;8.37;85.21;100090.67;2807438;84;21519;-71
2021/11/08 01:05:22;;;;;;;5.58;3.55;;;;;;;8.39;84.65;100091.41;2811669;84;21007;-69
2021/11/08 01:09:25;;;;;;;6.28;3.05;;;;;;;8.51;84.54;100094.95;2748232;85;21091;-69
2021/11/08 01:13:27;;;;;;;5.05;3.67;;;;;;;8.53;84.21;100093.03;2747981;86;21051;-69
2021/11/08 01:17:28;;;;;;;6.47;2.62;;;;;;;8.57;84.07;100094.51;2748054;86;21098;-70
2021/11/08 01:21:30;;;;;;;5.85;3.12;;;;;;;8.60;84.11;100096.55;2748423;85;21016;-71
2021/11/08 01:25:34;;;;;;;10.60;3.37;;;;;;;8.62;84.00;100095.95;2748516;85;21083;-69
2021/11/08 01:29:36;;;;;;;6.40;2.95;;;;;;;8.71;83.77;100100.53;2748193;85;21051;-70
2021/11/08 01:33:43;;;;;;;9.00;2.55;;;;;;;8.77;83.60;100097.43;2748129;85;21082;-69
2021/11/08 01:37:50;;;;;;;15.80;4.40;;;;;;;8.81;83.22;100101.99;2748088;85;21032;-70
2021/11/08 01:41:47;;;;;;;9.85;3.47;;;;;;;8.87;83.34;100102.86;2747932;86;21067;-69
2021/11/08 01:45:48;;;;;;;3.27;2.98;;;;;;;8.90;83.30;100100.44;2747884;86;21043;-69
2021/11/08 01:49:50;;;;;;;4.83;2.45;;;;;;;8.90;82.74;100097.31;2748113;86;21043;-70
2021/11/08 01:53:53;;;;;;;9.03;3.30;;;;;;;9.00;82.43;100094.78;2738579;86;21134;-72
2021/11/08 01:57:55;;;;;;;8.68;3.08;;;;;;;9.02;82.48;100103.94;2747791;85;21077;-71
2021/11/08 02:01:57;;;;;;;11.15;3.35;;;;;;;9.05;81.90;100101.06;2742934;85;21086;-71
2021/11/08 02:05:59;;;;;;;3.35;2.90;;;;;;;9.09;81.61;100095.38;2741354;87;21079;-69
2021/11/08 02:10:08;;;;;;;4.78;3.42;;;;;;;9.14;81.55;100095.88;2741239;87;21038;-70
2021/11/08 02:14:10;;;;;;;5.50;2.72;;;;;;;9.20;81.26;100103.81;2740989;85;21050;-69
2021/11/08 02:18:13;;;;;;;6.70;3.15;;;;;;;9.23;81.11;100114.68;2741354;86;21058;-70
2021/11/08 02:22:15;;;;;;;5.40;2.87;;;;;;;9.25;81.08;100114.94;2741751;87;21065;-69
2021/11/08 02:26:18;;;;;;;9.28;3.80;;;;;;;9.25;80.71;100114.07;2741492;85;21003;-69
2021/11/08 02:30:23;;;;;;;11.20;3.20;;;;;;;9.27;80.59;100122.29;2741438;84;21001;-70
2021/11/08 02:34:25;;;;;;;9.68;3.15;;;;;;;9.36;80.47;100127.82;2741273;86;21015;-70
2021/11/08 02:38:29;;;;;;;8.28;3.42;;;;;;;9.34;79.98;100129.75;2741381;87;21036;-69
2021/11/08 02:42:32;;;;;;;5.17;3.10;;;;;;;9.34;80.26;100132.41;2741744;86;21038;-69
2021/11/08 02:46:38;;;;;;;7.15;2.83;;;;;;;9.33;80.42;100136.03;2741352;86;21061;-69
2021/11/08 02:50:37;;;;;;;6.62;2.77;;;;;;;9.37;80.04;100137.47;2741311;85;21050;-68
2021/11/08 02:54:42;;;;;;;4.15;2.27;;;;;;;9.41;79.98;100145.08;2741594;87;20948;-69
2021/11/08 02:58:44;;;;;;;9.23;4.00;;;;;;;9.42;79.70;100142.78;2741333;86;21031;-69
2021/11/08 03:02:47;;;;;;;8.38;3.30;;;;;;;9.42;79.35;100157.85;2741681;86;21073;-69
2021/11/08 03:06:49;;;;;;;5.92;3.37;;;;;;;9.38;79.57;100158.60;2741967;86;21013;-70
2021/11/08 03:10:56;;;;;;;3.87;2.15;;;;;;;9.40;79.25;100158.46;2741792;85;21062;-69
2021/11/08 03:19:14;;;;;;;4.40;2.20;;;;;;;9.42;79.71;100171.12;2741700;87;21059;-70
2021/11/08 03:23:08;;;;;;;12.10;3.55;;;;;;;9.45;79.47;100174.89;2740241;86;21094;-71
2021/11/08 03:27:26;;;;;;;6.12;2.80;;;;;;;9.49;79.42;100180.31;2741725;86;21034;-69
2021/11/08 03:31:28;;;;;;;5.47;2.63;;;;;;;9.49;79.55;100185.63;2741608;87;21006;-70
2021/11/08 03:35:29;;;;;;;10.45;2.50;;;;;;;9.51;79.62;100176.20;2741323;86;20988;-70
2021/11/08 03:39:31;;;;;;;10.08;3.95;;;;;;;9.50;79.46;100191.77;2741651;87;21003;-71
2021/11/08 03:43:34;;;;;;;4.33;2.30;;;;;;;9.47;79.27;100194.20;2741746;86;20979;-69
2021/11/08 03:47:37;;;;;;;6.28;2.22;;;;;;;9.45;79.37;100185.98;2741669;85;21054;-69
2021/11/08 03:51:39;;;;;;;7.58;2.87;;;;;;;9.52;79.58;100183.19;2741686;86;21047;-70
2021/11/08 03:55:41;;;;;;;9.10;3.65;;;;;;;9.49;79.72;100191.41;2741748;87;21496;-69
2021/11/08 03:59:43;;;;;;;3.75;3.30;;;;;;;9.51;79.56;100191.66;2741315;86;21015;-71
2021/11/08 04:03:44;;;;;;;3.58;2.08;;;;;;;9.49;79.73;100190.94;2740982;87;21082;-73
2021/11/08 04:07:47;;;;;;;6.50;2.95;;;;;;;9.49;80.03;100184.30;2740527;87;21046;-75
2021/11/08 04:11:49;;;;;;;3.92;2.10;;;;;;;9.50;80.07;100187.31;2740390;85;20999;-74
2021/11/08 04:15:51;;;;;;;7.37;2.80;;;;;;;9.52;80.19;100188.03;2740525;87;21065;-79
2021/11/08 04:19:53;;;;;;;11.90;3.55;;;;;;;9.58;79.83;100188.86;2741350;85;21015;-75
2021/11/08 04:23:55;;;;;;;9.33;2.85;;;;;;;9.49;79.91;100193.59;2740770;86;20988;-77
2021/11/08 04:27:57;;;;;;;17.17;3.60;;;;;;;9.49;80.15;100192.27;2740469;87;21019;-78
2021/11/08 04:31:59;;;;;;;5.53;1.70;;;;;;;9.34;80.97;100204.08;2740480;87;21055;-75
2021/11/08 04:40:29;;;;;;;6.67;3.52;;;;;;;9.17;81.50;100198.27;2740225;87;21120;-76
2021/11/08 04:44:46;;;;;;;8.75;3.08;;;;;;;9.13;81.73;100194.17;2740350;86;21674;-74
2021/11/08 04:53:11;;;;;;;3.62;2.52;;;;;;;9.04;81.74;100205.02;2740163;87;21177;-73
2021/11/08 05:30:51;;;;;;;13.85;4.10;;;;;;;8.89;87.40;100224.28;2742790;85;21128;-73
2021/11/08 05:34:53;;;;;;;15.38;4.87;;;;;;;8.88;88.36;100233.20;2741844;87;21742;-73
2021/11/08 05:38:55;;;;;;;6.55;3.37;;;;;;;8.90;88.99;100241.03;2742474;84;20980;-76
2021/11/08 05:42:57;;;;;;;2.87;2.15;;;;;;;8.79;89.88;100237.40;2741760;87;21310;-75
2021/11/08 05:46:59;;;;;;;8.60;2.95;;;;;;;8.78;90.36;100246.78;2748058;86;21039;-72
2021/11/08 05:51:00;;;;;;;9.55;2.62;;;;;;;8.75;90.54;100256.30;2742315;87;21043;-73
2021/11/08 05:55:05;;;;;;;4.00;2.83;;;;;;;8.67;91.32;100258.19;2742250;87;21035;-74
2021/11/08 05:59:42;;;;;;;3.67;3.08;;;;;;;8.68;92.16;100259.88;2713840;87;21030;-75
2021/11/08 06:51:05;;;;;;;9.53;2.77;;;;;;;8.84;92.05;100329.41;2765315;86;21380;-72
2021/11/08 06:55:09;;;;;;;7.78;3.22;;;;;;;8.91;92.55;100344.39;2764674;84;21058;-75
2021/11/08 06:59:11;;;;;;;10.35;3.67;;;;;;;8.92;92.98;100350.06;2765466;86;21011;-75
2021/11/08 07:03:13;;;;;;;8.93;2.95;;;;;;;8.97;92.96;100347.91;2756402;85;21076;-73
2021/11/08 07:07:15;;;;;;;10.15;3.47;;;;;;;9.01;92.40;100353.84;2752913;86;21027;-75
2021/11/08 07:11:17;;;;;;;6.20;3.25;;;;;;;9.03;92.36;100357.69;2753201;86;21090;-75
2021/11/08 07:15:20;;;;;;;9.65;3.02;;;;;;;9.08;92.08;100363.02;2752927;86;21035;-75
2021/11/08 07:19:22;;;;;;;10.80;3.52;;;;;;;9.10;91.67;100374.86;2753203;86;21019;-74
2021/11/08 07:23:23;;;;;;;10.72;2.98;;;;;;;9.09;91.94;100370.02;2752874;86;21062;-73
2021/11/08 07:27:25;;;;;;;12.05;4.50;;;;;;;9.16;91.74;100378.38;2752901;86;21058;-74
2021/11/08 07:31:27;;;;;;;3.95;2.90;;;;;;;9.18;91.36;100372.47;2752910;85;21388;-72
2021/11/08 07:35:28;;;;;;;6.97;3.75;;;;;;;9.23;91.55;100386.23;2752610;85;21015;-74
2021/11/08 07:39:30;;;;;;;11.60;3.33;;;;;;;9.24;91.44;100389.28;2753013;86;20976;-74
2021/11/08 07:43:31;;;;;;;4.28;3.12;;;;;;;9.34;91.42;100387.25;2753048;86;21032;-75
2021/11/08 07:47:33;;;;;;;10.45;4.33;;;;;;;9.37;91.68;100395.84;2752946;86;21039;-75
2021/11/08 07:51:35;;;;;;;6.87;3.47;;;;;;;9.40;91.92;100401.38;2752974;86;21003;-75
2021/11/08 07:55:38;;;;;;;9.55;3.05;;;;;;;9.31;91.67;100412.20;2752971;86;21031;-73
2021/11/08 07:59:39;;;;;;;5.47;3.37;;;;;;;9.35;91.84;100407.53;2752830;86;21054;-72
2021/11/08 08:03:42;;;;;;;5.78;2.80;;;;;;;9.37;91.60;100409.59;2761931;86;21097;-73
2021/11/08 08:07:44;;;;;;;3.47;2.85;;;;;;;9.35;91.65;100404.88;2764615;86;21077;-74
2021/11/08 08:11:46;;;;;;;8.30;4.20;;;;;;;9.42;91.67;100423.35;2764764;86;22435;-73
2021/11/08 08:15:49;;;;;;;5.47;2.40;;;;;;;9.46;91.50;100438.12;2763892;84;21141;-75
2021/11/08 08:19:50;;;;;;;10.60;3.42;;;;;;;9.45;91.71;100421.82;2764585;86;21063;-75
2021/11/08 08:23:56;;;;;;;8.45;3.60;;;;;;;9.51;92.06;100431.97;2764822;86;21081;-74
2021/11/08 08:27:58;;;;;;;6.40;4.45;;;;;;;9.48;92.05;100438.84;2765283;85;21099;-73
2021/11/08 08:32:00;;;;;;;7.65;3.95;;;;;;;9.47;91.61;100441.14;2764885;86;21051;-74
2021/11/08 08:36:03;;;;;;;5.37;3.27;;;;;;;9.55;92.19;100449.36;2765188;86;21149;-75
2021/11/08 08:40:06;;;;;;;3.25;2.15;;;;;;;9.63;92.13;100449.25;2764748;86;21081;-74
2021/11/08 08:44:08;;;;;;;4.30;2.95;;;;;;;9.68;91.71;100445.30;2764675;86;21073;-76
2021/11/08 08:48:11;;;;;;;4.00;2.65;;;;;;;9.71;90.62;100461.50;2764323;86;21066;-76
2021/11/08 08:52:14;;;;;;;8.28;2.75;;;;;;;9.75;90.81;100456.30;2764278;86;21117;-74
2021/11/08 08:56:17;;;;;;;4.55;2.12;;;;;;;9.83;91.49;100469.02;2764366;86;21034;-75
2021/11/08 09:00:21;;;;;;;3.90;1.77;;;;;;;9.85;90.80;100459.11;2764154;86;21042;-74
2021/11/08 09:04:26;;;;;;;8.40;4.03;;;;;;;9.79;90.52;100475.03;2754000;86;21315;-72
2021/11/08 09:08:28;;;;;;;2.90;2.37;;;;;;;9.85;90.44;100481.23;2752537;86;21086;-71
2021/11/08 09:12:30;;;;;;;3.33;2.05;;;;;;;9.85;91.52;100493.65;2752870;86;20995;-71
2021/11/08 09:16:33;;;;;;;4.97;2.22;;;;;;;9.90;92.00;100497.30;2752800;86;21019;-73
2021/11/08 09:20:38;;;;;;;4.97;2.47;;;;;;;9.90;91.31;100504.77;2752832;86;21067;-74
2021/11/08 09:24:42;;;;;;;3.90;2.40;;;;;;;9.90;91.95;100491.98;2752625;86;21087;-73
2021/11/08 09:28:44;;;;;;;10.05;5.20;;;;;;;9.88;92.30;100501.39;2752628;86;21055;-73
2021/11/08 09:32:47;;;;;;;18.20;3.08;;;;;;;10.00;93.20;100509.77;2752749;85;21094;-72
2021/11/08 09:36:51;;;;;;;5.10;2.05;;;;;;;10.12;92.52;100500.01;2752986;85;21090;-71
2021/11/08 09:40:53;;;;;;;2.87;1.77;;;;;;;10.24;91.51;100514.66;2752994;86;21027;-75
2021/11/08 09:44:56;;;;;;;5.42;2.52;;;;;;;10.33;90.66;100520.59;2752279;86;21031;-74
2021/11/08 09:49:02;;;;;;;1.98;1.80;;;;;;;10.28;90.05;100518.27;2752222;86;21042;-75
2021/11/08 09:53:07;;;;;;;2.70;1.80;;;;;;;10.15;89.17;100519.70;2752403;84;21638;-72
2021/11/08 09:57:09;;;;;;;2.70;2.02;;;;;;;10.18;89.10;100517.30;2752169;86;21054;-75
2021/11/08 10:01:14;;;;;;;3.37;1.90;;;;;;;10.14;88.57;100518.02;2752561;86;21646;-75
2021/11/08 10:05:16;;;;;;;2.12;1.82;;;;;;;10.19;89.94;100523.45;2764708;86;21098;-74
2021/11/08 10:09:23;;;;;;;2.35;2.15;;;;;;;10.10;89.57;100527.19;2764767;86;21019;-73
2021/11/08 10:13:26;;;;;;;2.05;1.50;;;;;;;10.11;89.92;100535.53;2764253;85;21047;-71
2021/11/08 10:17:28;;;;;;;;;;;;;;;10.08;89.40;100533.11;2767289;85;21090;-76
2021/11/08 10:21:36;;;;;;;4.25;2.52;;;;;;;10.17;89.18;100543.99;2765159;85;20208;-76
2021/11/08 10:25:40;;;;;;;5.83;2.70;;;;;;;10.15;89.42;100532.99;2764808;86;21082;-72
2021/11/08 10:29:47;;;;;;;4.00;2.37;;;;;;;10.14;89.74;100541.94;2764705;86;21634;-73
2021/11/08 10:33:49;;;;;;;3.33;1.90;;;;;;;10.17;89.35;100532.03;2764953;83;20999;-75
2021/11/08 10:37:51;;;;;;;3.83;2.12;;;;;;;9.98;88.98;100540.93;2765026;84;21062;-72
2021/11/08 10:41:55;;;;;;;4.97;3.37;;;;;;;10.03;89.54;100528.63;2765058;83;21007;-72
2021/11/08 10:46:00;;;;;;;6.80;3.20;;;;;;;10.10;89.50;100529.84;2764750;86;21034;-72
2021/11/08 10:50:07;;;;;;;5.87;4.03;;;;;;;10.22;88.82;100532.52;2764897;86;21054;-73
2021/11/08 10:54:14;;;;;;;2.90;2.60;;;;;;;10.23;89.19;100536.40;2763395;84;21074;-72
2021/11/08 10:58:16;;;;;;;;;;;;;;;10.40;88.31;100535.13;2767287;86;21121;-74
2021/11/08 11:02:24;;;;;;;4.17;3.77;;;;;;;10.41;88.54;100544.79;2764774;86;20397;-74
2021/11/08 11:06:45;;;;;;;3.85;3.27;;;;;;;10.34;88.73;100536.91;2765047;85;21031;-73
2021/11/08 11:10:58;;;;;;;4.53;2.98;;;;;;;10.31;87.54;100542.46;2764362;86;21011;-74
2021/11/08 11:15:10;;;;;;;9.28;3.98;;;;;;;10.34;88.00;100554.19;2764714;85;21126;-72
2021/11/08 11:19:15;;;;;;;3.85;2.95;;;;;;;10.28;89.05;100559.48;2763063;85;21523;-73
2021/11/08 11:23:25;;;;;;;3.30;2.52;;;;;;;10.23;89.42;100566.14;2781420;84;21034;-72
2021/11/08 11:27:30;;;;;;;5.53;3.85;;;;;;;10.12;89.37;100565.59;2764769;84;21019;-72
2021/11/08 11:31:37;;;;;;;3.58;2.98;;;;;;;10.23;89.83;100575.45;2765042;84;21007;-73
2021/11/08 11:35:48;;;;;;;4.33;3.92;;;;;;;10.29;88.49;100580.29;2764962;86;21038;-74
2021/11/08 11:40:11;;;;;;;3.42;2.95;;;;;;;10.29;88.89;100583.78;2764730;86;20995;-73
2021/11/08 11:44:23;;;;;;;5.72;3.90;;;;;;;10.24;88.74;100583.28;2764967;86;21073;-71
2021/11/08 11:48:29;;;;;;;5.15;4.22;;;;;;;10.23;89.45;100582.09;2764980;86;21056;-74
2021/11/08 11:52:32;;;;;;;4.90;3.55;;;;;;;10.15;89.37;100576.03;2764588;86;21690;-72
2021/11/08 11:56:39;;;;;;;3.80;3.50;;;;;;;10.17;89.22;100582.53;2764720;86;21101;-74
2021/11/08 12:00:44;;;;;;;5.35;4.17;;;;;;;10.10;89.24;100572.84;2764717;86;21078;-74
2021/11/08 12:04:46;;;;;;;5.97;4.33;;;;;;;10.10;89.74;100568.39;2751372;85;21039;-73
2021/11/08 12:08:48;;;;;;;5.95;3.45;;;;;;;10.15;89.70;100582.17;2746717;86;21082;-73
2021/11/08 12:12:50;;;;;;;6.15;3.67;;;;;;;10.22;89.08;100572.39;2729670;85;21007;-73
2021/11/08 12:17:02;;;;;;;4.15;3.80;;;;;;;10.29;89.67;100583.78;2746929;86;21044;-74
2021/11/08 12:21:04;;;;;;;4.20;2.65;;;;;;;10.29;89.31;100593.58;2746792;86;21116;-74
2021/11/08 12:25:14;;;;;;;6.03;4.45;;;;;;;10.18;89.27;100588.22;2746665;86;21110;-73
2021/11/08 12:29:20;;;;;;;6.22;4.80;;;;;;;10.18;89.65;100585.56;2746825;86;21293;-73
2021/11/08 12:33:32;;;;;;;4.85;4.37;;;;;;;10.15;90.56;100584.00;2746699;86;21067;-73
2021/11/08 12:37:36;;;;;;;6.12;5.47;;;;;;;10.21;90.54;100589.31;2746682;86;21035;-71
2021/11/08 12:41:47;;;;;;;10.38;4.47;;;;;;;10.13;90.52;100585.93;2746830;86;21035;-73
2021/11/08 12:45:49;;;;;;;7.65;5.22;;;;;;;10.00;91.28;100578.00;2746643;86;21118;-74
2021/11/08 12:49:56;;;;;;;4.97;3.75;;;;;;;10.08;91.28;100592.05;2746384;86;21019;-73
2021/11/08 12:54:05;;;;;;;5.42;4.45;;;;;;;10.01;91.01;100587.67;2746383;86;21043;-72
2021/11/08 12:58:08;;;;;;;7.15;4.78;;;;;;;10.09;91.04;100599.92;2746688;86;21047;-73
2021/11/08 13:02:40;;;;;;;7.05;4.03;;;;;;;10.09;90.59;100587.96;2746536;85;21015;-74
2021/11/08 13:06:43;;;;;;;5.47;4.22;;;;;;;10.05;90.60;100589.63;2749295;86;21542;-75
2021/11/08 13:11:15;;;;;;;4.75;4.15;;;;;;;10.02;90.42;100597.34;2748968;86;21114;-73
2021/11/08 13:15:27;;;;;;;4.55;3.85;;;;;;;10.13;90.35;100592.08;2749031;85;21131;-72
2021/11/08 13:19:29;;;;;;;5.97;3.70;;;;;;;10.12;91.11;100593.51;2749621;85;21075;-72
2021/11/08 13:23:36;;;;;;;5.20;3.42;;;;;;;10.12;91.09;100590.85;2748921;86;21078;-73
2021/11/08 13:27:44;;;;;;;3.85;3.55;;;;;;;10.06;91.93;100592.19;2749286;85;21024;-75
2021/11/08 13:31:47;;;;;;;3.52;3.08;;;;;;;10.06;93.39;100593.52;2749093;86;20987;-73
2021/11/08 13:35:49;;;;;;;8.30;4.97;;;;;;;10.04;93.26;100598.56;2749011;86;21063;-73
2021/11/08 13:39:51;;;;;;;5.78;5.03;;;;;;;10.03;93.75;100601.72;2749395;86;21058;-73
2021/11/08 13:43:57;;;;;;;6.83;4.97;;;;;;;10.11;94.06;100603.31;2748896;86;21031;-72
2021/11/08 13:47:59;;;;;;;6.35;5.35;;;;;;;10.17;93.39;100601.14;2730538;84;21023;-70
2021/11/08 13:52:00;;;;;;;8.03;5.30;;;;;;;10.03;92.77;100606.17;2704244;88;21678;-70
2021/11/08 13:56:09;;;;;;;7.10;4.90;;;;;;;10.21;92.49;100602.60;2704505;88;21008;-70
2021/11/08 14:00:16;;;;;;;5.37;4.83;;;;;;;10.23;91.52;100610.01;2703914;87;21091;-71
2021/11/08 14:04:17;;;;;;;5.70;5.10;;;;;;;10.21;91.47;100611.91;2729034;85;21088;-75
2021/11/08 14:08:23;;;;;;;7.53;6.50;;;;;;;10.21;91.41;100620.74;2749338;84;21060;-76
2021/11/08 14:12:29;;;;;;;11.27;6.20;;;;;;;10.31;91.65;100624.89;2749326;86;21040;-74
2021/11/08 14:16:32;;;;;;;12.63;7.00;;;;;;;10.38;91.55;100635.91;2749255;84;21041;-70
2021/11/08 14:20:33;;;;;;;11.43;7.67;;;;;;;10.36;91.87;100640.50;2749805;86;21036;-75
2021/11/08 14:24:43;;;;;;;6.83;5.87;;;;;;;10.22;93.40;100633.08;2751156;86;21064;-71
2021/11/08 14:28:47;;;;;;;11.95;8.58;;;;;;;10.14;94.73;100646.94;2751751;84;21048;-71
2021/11/08 14:32:52;;;;;;;11.83;7.25;;;;;;;10.15;95.35;100641.16;2752190;86;21048;-70
2021/11/08 14:36:55;;;;;;;11.65;8.03;;;;;;;10.04;95.75;100641.95;2752504;86;21120;-71
2021/11/08 14:40:58;;;;;;;14.53;9.13;;;;;;;10.10;95.38;100640.63;2752243;82;21091;-71
2021/11/08 14:45:00;;;;;;;16.17;8.75;;;;;;;10.10;95.12;100641.48;2750659;86;21028;-72
2021/11/08 14:49:27;;;;;;;11.65;6.97;;;;;;;10.07;95.51;100638.20;2752465;86;21293;-71
2021/11/08 14:53:29;;;;;;;12.82;8.58;;;;;;;10.04;94.93;100649.92;2752055;86;21100;-72
2021/11/08 14:57:32;;;;;;;13.50;8.63;;;;;;;10.05;94.30;100654.28;2751738;86;21079;-71
2021/11/08 15:01:38;;;;;;;13.85;7.90;;;;;;;10.09;93.61;100659.73;2752324;86;21068;-73
2021/11/08 15:05:42;;;;;;;16.48;7.17;;;;;;;10.09;93.43;100659.73;2752133;86;21044;-71
2021/11/08 15:09:51;;;;;;;11.70;8.25;;;;;;;10.13;93.03;100659.03;2751331;86;21068;-72
2021/11/08 15:13:53;;;;;;;12.20;8.18;;;;;;;10.10;92.32;100663.22;2785687;84;21064;-71
2021/11/08 15:18:16;;;;;;;12.63;7.70;;;;;;;10.08;92.64;100664.68;2794788;85;21078;-71
2021/11/08 15:22:23;;;;;;;15.70;8.78;;;;;;;10.12;92.10;100671.45;2796412;84;21231;-72
2021/11/08 15:26:27;;;;;;;20.88;9.48;;;;;;;10.18;91.77;100666.17;2795301;84;21141;-73
2021/11/08 15:30:31;;;;;;;13.75;9.88;;;;;;;10.18;92.06;100681.27;2794558;84;21037;-72
2021/11/08 15:34:33;;;;;;;18.95;8.63;;;;;;;10.24;92.21;100700.77;2795870;85;21421;-72
2021/11/08 15:38:37;;;;;;;10.25;5.80;;;;;;;10.24;92.16;100696.78;2795287;85;20979;-70
2021/11/08 15:42:39;;;;;;;12.30;6.45;;;;;;;10.20;91.93;100709.44;2795807;84;20997;-71
2021/11/08 15:46:42;;;;;;;13.48;6.85;;;;;;;10.13;92.09;100710.37;2795870;83;21354;-72
2021/11/08 15:50:44;;;;;;;14.43;8.38;;;;;;;10.11;92.00;100712.30;2797263;85;21036;-73
2021/11/08 15:54:46;;;;;;;22.73;9.45;;;;;;;10.25;91.69;100722.41;2796373;83;21007;-70
2021/11/08 15:58:47;;;;;;;9.80;6.55;;;;;;;10.23;91.58;100717.69;2795714;85;21078;-70
2021/11/08 16:02:49;;;;;;;10.65;6.47;;;;;;;10.25;90.93;100712.60;2795759;84;21011;-69
2021/11/08 16:06:53;;;;;;;8.60;5.53;;;;;;;10.38;90.49;100717.86;2793583;83;21058;-70
2021/11/08 16:10:54;;;;;;;9.18;6.37;;;;;;;10.43;89.60;100710.44;2768587;84;21080;-71
2021/11/08 16:14:56;;;;;;;9.50;6.28;;;;;;;10.51;89.00;100711.66;2795563;84;21084;-72
2021/11/08 16:18:58;;;;;;;24.10;7.60;;;;;;;10.57;88.40;100717.84;2796739;84;21011;-71
2021/11/08 16:23:00;;;;;;;11.88;5.60;;;;;;;10.58;88.13;100710.23;2789174;83;21011;-72
2021/11/08 16:27:02;;;;;;;9.85;5.85;;;;;;;10.62;87.61;100714.38;2797019;84;21036;-71
2021/11/08 16:31:11;;;;;;;9.90;6.35;;;;;;;10.65;87.61;100718.60;2795716;85;21058;-72
2021/11/08 16:35:13;;;;;;;16.27;7.37;;;;;;;10.66;87.25;100720.30;2796540;84;21547;-71
2021/11/08 16:39:15;;;;;;;16.93;7.22;;;;;;;10.66;87.35;100723.81;2785075;83;21056;-72
2021/11/08 16:43:22;;;;;;;19.50;10.23;;;;;;;10.62;87.55;100731.67;2797562;85;21017;-69
2021/11/08 16:47:24;;;;;;;27.30;10.45;;;;;;;10.62;87.93;100735.66;2798005;84;21088;-71
2021/11/08 16:51:29;;;;;;;19.85;9.50;;;;;;;10.63;87.79;100745.80;2797474;84;21072;-70
2021/11/08 16:55:31;;;;;;;18.12;8.05;;;;;;;10.59;87.92;100749.16;2797038;85;21055;-72
2021/11/08 16:59:33;;;;;;;9.73;7.08;;;;;;;10.59;88.01;100748.33;2797908;85;21040;-70
2021/11/08 17:03:36;;;;;;;9.65;7.58;;;;;;;10.60;87.82;100749.53;2798822;84;21008;-71
2021/11/08 17:07:40;;;;;;;16.05;7.72;;;;;;;10.57;87.67;100753.29;2804478;84;21060;-71
2021/11/08 17:16:05;;;;;;;20.52;6.60;;;;;;;10.66;87.08;100758.41;2804961;84;21125;-71
2021/11/08 17:20:09;;;;;;;11.95;5.72;;;;;;;10.69;86.90;100765.29;2805193;84;21107;-70
2021/11/08 17:24:11;;;;;;;16.30;5.80;;;;;;;10.67;86.43;100765.89;2805532;84;21110;-72
2021/11/08 17:28:13;;;;;;;13.93;6.40;;;;;;;10.72;86.70;100771.73;2804934;84;21452;-70
2021/11/08 17:32:15;;;;;;;14.47;6.70;;;;;;;10.68;87.07;100775.09;2757608;85;20995;-71
2021/11/08 17:36:17;;;;;;;13.32;6.33;;;;;;;10.66;87.22;100786.34;2806319;84;21046;-70
2021/11/08 17:40:18;;;;;;;11.88;6.55;;;;;;;10.59;86.91;100780.25;2805794;84;21050;-70
2021/11/08 17:44:20;;;;;;;14.58;5.72;;;;;;;10.54;86.94;100793.89;2807151;84;21037;-71
2021/11/08 17:48:22;;;;;;;20.52;7.08;;;;;;;10.48;87.32;100797.84;2813836;84;21037;-71
2021/11/08 17:52:25;;;;;;;11.80;6.90;;;;;;;10.45;87.44;100804.72;2810423;84;21009;-72
2021/11/08 17:56:28;;;;;;;15.98;6.15;;;;;;;10.42;87.32;100807.61;2810487;84;21061;-69
2021/11/08 18:00:32;;;;;;;11.43;7.33;;;;;;;10.42;87.21;100814.26;2814051;84;21064;-71
2021/11/08 18:04:33;;;;;;;20.70;6.45;;;;;;;10.40;87.22;100810.84;2809759;83;21011;-69
2021/11/08 18:08:36;;;;;;;12.23;6.47;;;;;;;10.43;87.31;100817.28;2805803;84;21062;-70
2021/11/08 18:12:38;;;;;;;10.53;6.58;;;;;;;10.43;87.71;100816.82;2806020;84;21077;-70
2021/11/08 18:16:40;;;;;;;10.00;6.65;;;;;;;10.47;88.12;100827.23;2814094;83;21046;-69
2021/11/08 18:29:06;;;;;;;12.33;7.87;;;;;;;10.40;87.69;100824.13;2813817;83;22358;-71
2021/11/08 18:33:10;;;;;;;17.87;8.48;;;;;;;10.42;87.66;100831.08;2814181;84;21067;-70
2021/11/08 18:37:12;;;;;;;9.68;5.97;;;;;;;10.43;87.44;100833.24;2810834;83;21060;-72
2021/11/08 18:41:15;;;;;;;10.82;6.83;;;;;;;10.45;87.20;100837.97;2807969;84;21449;-71
2021/11/08 18:45:20;;;;;;;15.03;7.65;;;;;;;10.46;86.96;100840.16;2809445;84;21046;-70
2021/11/08 18:49:23;;;;;;;7.95;5.53;;;;;;;10.45;87.21;100845.11;2808566;84;21010;-70
2021/11/08 18:53:27;;;;;;;;;;;;;;;10.41;87.14;100849.80;2816251;84;21027;-69
2021/11/08 18:57:29;;;;;;;11.63;6.97;;;;;;;10.40;87.15;100850.73;2809878;84;20132;-71
2021/11/08 19:01:44;;;;;;;11.90;6.80;;;;;;;10.35;87.33;100860.86;2814448;84;21551;-69
2021/11/08 19:05:41;;;;;;;11.35;6.97;;;;;;;10.37;87.40;100857.11;2806620;83;21075;-71
2021/11/08 19:09:45;;;;;;;12.07;6.78;;;;;;;10.34;87.27;100862.65;2807939;83;21015;-70
2021/11/08 19:13:48;;;;;;;21.12;8.03;;;;;;;10.37;87.06;100866.41;2811362;84;21058;-69
2021/11/08 19:17:50;;;;;;;14.23;7.87;;;;;;;10.39;86.97;100868.97;2814062;83;20982;-69
2021/11/08 19:21:52;;;;;;;16.52;8.40;;;;;;;10.39;86.59;100863.16;2810117;84;21007;-70
2021/11/08 19:25:54;;;;;;;14.00;7.45;;;;;;;10.42;86.34;100870.11;2806784;83;21035;-69
2021/11/08 19:30:00;;;;;;;8.28;6.97;;;;;;;10.41;85.72;100872.40;2810052;83;21029;-68
2021/11/08 19:34:15;;;;;;;12.63;6.25;;;;;;;10.38;85.19;100875.25;2801020;84;21012;-69
2021/11/08 19:38:07;;;;;;;12.13;7.50;;;;;;;10.40;85.38;100879.98;2809855;84;21061;-70
2021/11/08 19:42:10;;;;;;;9.13;5.55;;;;;;;10.34;85.08;100889.73;2806553;84;21089;-68
2021/11/08 19:46:11;;;;;;;13.85;7.33;;;;;;;10.25;85.17;100890.74;2806214;84;21041;-71
2021/11/08 19:50:13;;;;;;;10.80;6.25;;;;;;;10.31;85.24;100896.11;2750977;86;21770;-73
2021/11/08 19:54:17;;;;;;;15.43;7.55;;;;;;;10.26;84.92;100902.25;2755710;84;21061;-70
2021/11/08 19:58:19;;;;;;;9.83;4.97;;;;;;;10.32;85.06;100901.80;2805445;84;21426;-71
2021/11/08 20:02:21;;;;;;;14.23;6.42;;;;;;;10.29;85.27;100911.33;2806205;84;21028;-70
2021/11/08 20:06:25;;;;;;;11.45;5.62;;;;;;;10.36;85.29;100919.73;2805851;84;21411;-74
2021/11/08 20:10:30;;;;;;;18.48;7.00;;;;;;;10.35;84.93;100915.37;2805847;84;21462;-71
2021/11/08 20:14:39;;;;;;;16.07;6.03;;;;;;;10.32;84.37;100912.91;2806047;84;21039;-72
2021/11/08 20:18:36;;;;;;;13.25;5.97;;;;;;;10.29;84.88;100921.97;2804459;83;21618;-71
2021/11/08 20:22:39;;;;;;;18.32;6.08;;;;;;;10.28;84.82;100928.25;2806459;84;39374;-71
2021/11/08 20:26:43;;;;;;;8.33;4.90;;;;;;;10.28;84.95;100929.57;2806166;84;21133;-72
2021/11/08 20:30:52;;;;;;;9.05;5.80;;;;;;;10.29;84.79;100937.92;2806354;84;20998;-72
2021/11/08 20:39:20;;;;;;;12.23;6.00;;;;;;;10.31;84.12;100943.11;2798872;85;21004;-71
2021/11/08 20:47:52;;;;;;;8.53;4.92;;;;;;;10.33;83.59;100951.86;2806420;83;21054;-72
2021/11/08 20:51:47;;;;;;;5.47;3.62;;;;;;;10.25;83.47;100947.08;2756054;85;21023;-72